aviador You're here:

LEVC Decoded Metar

VALENCIA in SPAIN
Report Time2014-07-22 17:00:00
UTC Time2014-07-22 17:26:32
Flight Rules vfr VFR
Wind070° at 09 kt
W.Decomp.*RWY 12: 5.9 kt HW 6.8 kt LCW
W.Rank070° ranks 12
Current wind is above 070° avg. (6.8)
Visibility9999 m
Phenomena:N/A
Clouds:Few 030 Hf
Expected CloudBase > 2,800 ft AGL from Temp-Dew spread
CeilingNone
Temp27°C (ISA +12)
Dew Point20°C (66% RH)
Heat Index28.5°C
QNH1013 hPa
Density Alt1,942 ft
Elevation203 ft
Report Wrong Elevation
Raw Report
METAR LEVC 221700Z 07009KT 050V110 9999 FEW030 27/20 Q1013 NOSIG=

Flight School in Barcelona

Extra information for LEVC:More info


Webcam Valencia